sensor_id;sensor_type;location;lat;lon;timestamp;P1;durP1;ratioP1;P2;durP2;ratioP2
45388;SDS011;31127;52.078;4.370;2023-03-19T00:00:46;25.93;;;19.23;;
45388;SDS011;31127;52.078;4.370;2023-03-19T00:05:48;22.48;;;18.77;;
45388;SDS011;31127;52.078;4.370;2023-03-19T00:10:44;25.08;;;20.55;;
45388;SDS011;31127;52.078;4.370;2023-03-19T00:15:40;26.02;;;22.42;;
45388;SDS011;31127;52.078;4.370;2023-03-19T00:20:36;29.88;;;23.88;;
45388;SDS011;31127;52.078;4.370;2023-03-19T00:25:31;29.80;;;23.90;;
45388;SDS011;31127;52.078;4.370;2023-03-19T00:30:27;31.55;;;23.17;;
45388;SDS011;31127;52.078;4.370;2023-03-19T00:35:23;32.38;;;22.70;;
45388;SDS011;31127;52.078;4.370;2023-03-19T00:40:18;33.40;;;24.08;;
45388;SDS011;31127;52.078;4.370;2023-03-19T00:45:14;34.08;;;22.25;;
45388;SDS011;31127;52.078;4.370;2023-03-19T00:50:10;23.73;;;18.85;;
45388;SDS011;31127;52.078;4.370;2023-03-19T00:55:06;21.63;;;16.05;;
45388;SDS011;31127;52.078;4.370;2023-03-19T01:00:02;23.20;;;15.98;;
45388;SDS011;31127;52.078;4.370;2023-03-19T01:04:58;18.52;;;13.43;;
45388;SDS011;31127;52.078;4.370;2023-03-19T01:09:53;24.00;;;13.38;;
45388;SDS011;31127;52.078;4.370;2023-03-19T01:14:49;19.48;;;13.20;;
45388;SDS011;31127;52.078;4.370;2023-03-19T01:19:44;19.90;;;12.68;;
45388;SDS011;31127;52.078;4.370;2023-03-19T01:24:40;26.85;;;13.85;;
45388;SDS011;31127;52.078;4.370;2023-03-19T01:29:36;23.13;;;14.50;;
45388;SDS011;31127;52.078;4.370;2023-03-19T01:34:39;26.77;;;17.30;;
45388;SDS011;31127;52.078;4.370;2023-03-19T01:39:41;24.73;;;17.10;;
45388;SDS011;31127;52.078;4.370;2023-03-19T01:44:40;29.38;;;17.17;;
45388;SDS011;31127;52.078;4.370;2023-03-19T01:49:52;29.17;;;17.83;;
45388;SDS011;31127;52.078;4.370;2023-03-19T01:54:50;26.90;;;16.05;;
45388;SDS011;31127;52.078;4.370;2023-03-19T02:00:14;26.92;;;16.60;;
45388;SDS011;31127;52.078;4.370;2023-03-19T02:05:13;25.95;;;16.88;;
45388;SDS011;31127;52.078;4.370;2023-03-19T02:10:12;29.17;;;16.08;;
45388;SDS011;31127;52.078;4.370;2023-03-19T02:15:08;31.85;;;16.92;;
45388;SDS011;31127;52.078;4.370;2023-03-19T02:20:06;29.23;;;15.52;;
45388;SDS011;31127;52.078;4.370;2023-03-19T02:25:10;25.13;;;15.63;;
45388;SDS011;31127;52.078;4.370;2023-03-19T02:30:17;28.02;;;16.10;;
45388;SDS011;31127;52.078;4.370;2023-03-19T02:35:37;26.80;;;16.25;;
45388;SDS011;31127;52.078;4.370;2023-03-19T02:40:33;28.33;;;17.08;;
45388;SDS011;31127;52.078;4.370;2023-03-19T02:45:31;39.55;;;26.42;;
45388;SDS011;31127;52.078;4.370;2023-03-19T02:50:27;37.42;;;24.58;;
45388;SDS011;31127;52.078;4.370;2023-03-19T02:55:22;40.42;;;25.52;;
45388;SDS011;31127;52.078;4.370;2023-03-19T03:00:18;42.85;;;28.08;;
45388;SDS011;31127;52.078;4.370;2023-03-19T03:05:15;45.55;;;30.40;;
45388;SDS011;31127;52.078;4.370;2023-03-19T03:10:10;40.42;;;24.50;;
45388;SDS011;31127;52.078;4.370;2023-03-19T03:15:26;48.67;;;29.65;;
45388;SDS011;31127;52.078;4.370;2023-03-19T03:20:22;42.72;;;27.60;;
45388;SDS011;31127;52.078;4.370;2023-03-19T03:25:18;40.55;;;25.75;;
45388;SDS011;31127;52.078;4.370;2023-03-19T03:30:15;39.30;;;23.65;;
45388;SDS011;31127;52.078;4.370;2023-03-19T03:35:11;44.03;;;28.27;;
45388;SDS011;31127;52.078;4.370;2023-03-19T03:40:06;48.85;;;31.42;;
45388;SDS011;31127;52.078;4.370;2023-03-19T03:45:03;57.22;;;35.67;;
45388;SDS011;31127;52.078;4.370;2023-03-19T03:49:59;56.70;;;33.22;;
45388;SDS011;31127;52.078;4.370;2023-03-19T03:54:55;47.03;;;30.00;;
45388;SDS011;31127;52.078;4.370;2023-03-19T03:59:50;48.78;;;29.05;;
45388;SDS011;31127;52.078;4.370;2023-03-19T04:04:46;41.90;;;26.27;;
45388;SDS011;31127;52.078;4.370;2023-03-19T04:09:42;45.72;;;25.40;;
45388;SDS011;31127;52.078;4.370;2023-03-19T04:14:37;51.35;;;27.80;;
45388;SDS011;31127;52.078;4.370;2023-03-19T04:19:32;53.80;;;29.05;;
45388;SDS011;31127;52.078;4.370;2023-03-19T04:24:28;59.50;;;32.08;;
45388;SDS011;31127;52.078;4.370;2023-03-19T04:29:24;61.35;;;33.45;;
45388;SDS011;31127;52.078;4.370;2023-03-19T04:34:20;60.83;;;31.67;;
45388;SDS011;31127;52.078;4.370;2023-03-19T04:39:15;67.35;;;32.25;;
45388;SDS011;31127;52.078;4.370;2023-03-19T04:44:31;73.03;;;34.85;;
45388;SDS011;31127;52.078;4.370;2023-03-19T04:49:29;65.72;;;32.67;;
45388;SDS011;31127;52.078;4.370;2023-03-19T04:54:25;72.43;;;33.30;;
45388;SDS011;31127;52.078;4.370;2023-03-19T04:59:21;67.20;;;30.35;;
45388;SDS011;31127;52.078;4.370;2023-03-19T05:04:17;70.03;;;29.58;;
45388;SDS011;31127;52.078;4.370;2023-03-19T05:09:13;80.88;;;30.90;;
45388;SDS011;31127;52.078;4.370;2023-03-19T05:14:09;77.57;;;32.20;;
45388;SDS011;31127;52.078;4.370;2023-03-19T05:19:36;78.50;;;34.85;;
45388;SDS011;31127;52.078;4.370;2023-03-19T05:24:33;94.05;;;35.70;;
45388;SDS011;31127;52.078;4.370;2023-03-19T05:29:29;77.47;;;31.75;;
45388;SDS011;31127;52.078;4.370;2023-03-19T05:34:51;77.90;;;34.08;;
45388;SDS011;31127;52.078;4.370;2023-03-19T05:39:47;92.10;;;36.75;;
45388;SDS011;31127;52.078;4.370;2023-03-19T05:44:43;95.68;;;37.78;;
45388;SDS011;31127;52.078;4.370;2023-03-19T05:49:48;101.70;;;43.60;;
45388;SDS011;31127;52.078;4.370;2023-03-19T05:54:44;93.70;;;38.10;;
45388;SDS011;31127;52.078;4.370;2023-03-19T06:00:07;99.63;;;40.67;;
45388;SDS011;31127;52.078;4.370;2023-03-19T06:05:23;86.25;;;34.85;;
45388;SDS011;31127;52.078;4.370;2023-03-19T06:10:22;91.65;;;37.58;;
45388;SDS011;31127;52.078;4.370;2023-03-19T06:15:21;102.72;;;38.58;;
45388;SDS011;31127;52.078;4.370;2023-03-19T06:20:37;85.47;;;33.38;;
45388;SDS011;31127;52.078;4.370;2023-03-19T06:25:33;100.45;;;38.55;;
45388;SDS011;31127;52.078;4.370;2023-03-19T06:30:28;127.85;;;41.60;;
45388;SDS011;31127;52.078;4.370;2023-03-19T06:35:27;100.05;;;36.67;;
45388;SDS011;31127;52.078;4.370;2023-03-19T06:40:23;111.45;;;36.10;;
45388;SDS011;31127;52.078;4.370;2023-03-19T06:45:38;154.65;;;43.03;;
45388;SDS011;31127;52.078;4.370;2023-03-19T06:50:54;146.43;;;42.72;;
45388;SDS011;31127;52.078;4.370;2023-03-19T06:55:49;144.98;;;44.13;;
45388;SDS011;31127;52.078;4.370;2023-03-19T07:00:45;137.95;;;39.20;;
45388;SDS011;31127;52.078;4.370;2023-03-19T07:05:40;139.52;;;40.78;;
45388;SDS011;31127;52.078;4.370;2023-03-19T07:10:39;122.60;;;39.33;;
45388;SDS011;31127;52.078;4.370;2023-03-19T07:15:54;130.82;;;37.95;;
45388;SDS011;31127;52.078;4.370;2023-03-19T07:21:10;122.53;;;40.15;;
45388;SDS011;31127;52.078;4.370;2023-03-19T07:26:05;105.85;;;35.25;;
45388;SDS011;31127;52.078;4.370;2023-03-19T07:31:01;120.78;;;37.85;;
45388;SDS011;31127;52.078;4.370;2023-03-19T07:35:56;112.63;;;32.83;;
45388;SDS011;31127;52.078;4.370;2023-03-19T07:40:51;113.10;;;38.22;;
45388;SDS011;31127;52.078;4.370;2023-03-19T07:45:47;101.55;;;37.65;;
45388;SDS011;31127;52.078;4.370;2023-03-19T07:50:43;94.40;;;36.40;;
45388;SDS011;31127;52.078;4.370;2023-03-19T07:55:38;77.80;;;33.30;;
45388;SDS011;31127;52.078;4.370;2023-03-19T08:00:34;71.85;;;29.67;;
45388;SDS011;31127;52.078;4.370;2023-03-19T08:05:29;77.40;;;33.13;;
45388;SDS011;31127;52.078;4.370;2023-03-19T08:10:24;78.50;;;31.77;;
45388;SDS011;31127;52.078;4.370;2023-03-19T08:15:20;77.18;;;32.88;;
45388;SDS011;31127;52.078;4.370;2023-03-19T08:20:18;87.00;;;34.10;;
45388;SDS011;31127;52.078;4.370;2023-03-19T08:25:15;125.30;;;37.70;;
45388;SDS011;31127;52.078;4.370;2023-03-19T08:30:11;82.35;;;35.03;;
45388;SDS011;31127;52.078;4.370;2023-03-19T08:35:06;77.30;;;34.50;;
45388;SDS011;31127;52.078;4.370;2023-03-19T08:40:02;73.60;;;33.20;;
45388;SDS011;31127;52.078;4.370;2023-03-19T08:44:59;83.38;;;34.53;;
45388;SDS011;31127;52.078;4.370;2023-03-19T08:49:54;84.82;;;35.40;;
45388;SDS011;31127;52.078;4.370;2023-03-19T08:55:10;88.50;;;33.80;;
45388;SDS011;31127;52.078;4.370;2023-03-19T09:00:05;57.85;;;27.20;;
45388;SDS011;31127;52.078;4.370;2023-03-19T09:05:21;81.82;;;34.25;;
45388;SDS011;31127;52.078;4.370;2023-03-19T09:10:36;68.90;;;32.78;;
45388;SDS011;31127;52.078;4.370;2023-03-19T09:15:32;59.00;;;27.73;;
45388;SDS011;31127;52.078;4.370;2023-03-19T09:20:27;53.08;;;24.48;;
45388;SDS011;31127;52.078;4.370;2023-03-19T09:25:23;61.15;;;27.15;;
45388;SDS011;31127;52.078;4.370;2023-03-19T09:30:18;54.40;;;26.60;;
45388;SDS011;31127;52.078;4.370;2023-03-19T09:35:14;64.53;;;27.38;;
45388;SDS011;31127;52.078;4.370;2023-03-19T09:40:15;63.80;;;28.15;;
45388;SDS011;31127;52.078;4.370;2023-03-19T09:45:15;67.05;;;30.38;;
45388;SDS011;31127;52.078;4.370;2023-03-19T09:50:32;64.45;;;28.48;;
45388;SDS011;31127;52.078;4.370;2023-03-19T09:55:34;66.50;;;27.10;;
45388;SDS011;31127;52.078;4.370;2023-03-19T10:00:52;55.67;;;25.55;;
45388;SDS011;31127;52.078;4.370;2023-03-19T10:05:55;69.35;;;27.65;;
45388;SDS011;31127;52.078;4.370;2023-03-19T10:16:15;55.95;;;26.85;;
45388;SDS011;31127;52.078;4.370;2023-03-19T10:21:22;55.97;;;29.52;;
45388;SDS011;31127;52.078;4.370;2023-03-19T10:26:20;63.60;;;27.95;;
45388;SDS011;31127;52.078;4.370;2023-03-19T10:31:42;62.65;;;27.92;;
45388;SDS011;31127;52.078;4.370;2023-03-19T10:36:39;66.47;;;28.55;;
45388;SDS011;31127;52.078;4.370;2023-03-19T10:46:48;46.53;;;24.83;;
45388;SDS011;31127;52.078;4.370;2023-03-19T10:51:44;51.05;;;26.33;;
45388;SDS011;31127;52.078;4.370;2023-03-19T10:56:40;32.53;;;19.90;;
45388;SDS011;31127;52.078;4.370;2023-03-19T11:01:40;40.28;;;21.10;;
45388;SDS011;31127;52.078;4.370;2023-03-19T11:06:48;44.90;;;23.80;;
45388;SDS011;31127;52.078;4.370;2023-03-19T11:11:45;46.25;;;24.80;;
45388;SDS011;31127;52.078;4.370;2023-03-19T11:21:58;46.95;;;24.58;;
45388;SDS011;31127;52.078;4.370;2023-03-19T11:27:14;40.30;;;23.15;;
45388;SDS011;31127;52.078;4.370;2023-03-19T11:47:27;22.83;;;14.90;;
45388;SDS011;31127;52.078;4.370;2023-03-19T11:52:40;28.27;;;16.95;;
45388;SDS011;31127;52.078;4.370;2023-03-19T12:02:52;30.77;;;17.70;;
45388;SDS011;31127;52.078;4.370;2023-03-19T12:13:18;22.65;;;12.02;;
45388;SDS011;31127;52.078;4.370;2023-03-19T12:29:03;28.48;;;16.17;;
45388;SDS011;31127;52.078;4.370;2023-03-19T12:34:12;40.92;;;24.23;;
45388;SDS011;31127;52.078;4.370;2023-03-19T12:39:13;41.08;;;24.00;;
45388;SDS011;31127;52.078;4.370;2023-03-19T12:44:11;42.10;;;22.60;;
45388;SDS011;31127;52.078;4.370;2023-03-19T12:49:18;36.92;;;22.77;;
45388;SDS011;31127;52.078;4.370;2023-03-19T12:54:23;34.97;;;20.95;;
45388;SDS011;31127;52.078;4.370;2023-03-19T13:04:37;21.50;;;13.50;;
45388;SDS011;31127;52.078;4.370;2023-03-19T13:10:35;22.90;;;13.75;;
45388;SDS011;31127;52.078;4.370;2023-03-19T13:15:12;35.03;;;17.25;;
45388;SDS011;31127;52.078;4.370;2023-03-19T13:20:15;48.17;;;20.55;;
45388;SDS011;31127;52.078;4.370;2023-03-19T13:25:15;44.50;;;20.27;;
45388;SDS011;31127;52.078;4.370;2023-03-19T13:40:44;43.33;;;19.73;;
45388;SDS011;31127;52.078;4.370;2023-03-19T13:45:40;38.72;;;17.83;;
45388;SDS011;31127;52.078;4.370;2023-03-19T13:50:48;36.03;;;16.60;;
45388;SDS011;31127;52.078;4.370;2023-03-19T14:01:00;24.02;;;12.00;;
45388;SDS011;31127;52.078;4.370;2023-03-19T14:06:29;17.55;;;11.70;;
45388;SDS011;31127;52.078;4.370;2023-03-19T14:11:34;18.40;;;10.93;;
45388;SDS011;31127;52.078;4.370;2023-03-19T14:16:34;17.05;;;10.20;;
45388;SDS011;31127;52.078;4.370;2023-03-19T14:27:26;24.08;;;11.85;;
45388;SDS011;31127;52.078;4.370;2023-03-19T14:32:26;24.70;;;12.77;;
45388;SDS011;31127;52.078;4.370;2023-03-19T14:37:23;28.50;;;12.57;;
45388;SDS011;31127;52.078;4.370;2023-03-19T14:48:05;31.20;;;15.57;;
45388;SDS011;31127;52.078;4.370;2023-03-19T14:53:18;24.70;;;13.10;;
45388;SDS011;31127;52.078;4.370;2023-03-19T14:58:34;31.00;;;14.10;;
45388;SDS011;31127;52.078;4.370;2023-03-19T15:03:33;28.50;;;14.27;;
45388;SDS011;31127;52.078;4.370;2023-03-19T15:08:32;22.50;;;13.65;;
45388;SDS011;31127;52.078;4.370;2023-03-19T15:13:34;22.08;;;12.80;;
45388;SDS011;31127;52.078;4.370;2023-03-19T15:18:34;23.08;;;13.18;;
45388;SDS011;31127;52.078;4.370;2023-03-19T15:23:30;21.95;;;12.75;;
45388;SDS011;31127;52.078;4.370;2023-03-19T15:28:49;21.73;;;13.00;;
45388;SDS011;31127;52.078;4.370;2023-03-19T15:33:45;19.67;;;12.63;;
45388;SDS011;31127;52.078;4.370;2023-03-19T15:38:45;21.17;;;13.52;;
45388;SDS011;31127;52.078;4.370;2023-03-19T15:43:43;19.27;;;12.68;;
45388;SDS011;31127;52.078;4.370;2023-03-19T15:48:44;20.80;;;12.75;;
45388;SDS011;31127;52.078;4.370;2023-03-19T15:53:41;19.20;;;11.43;;
45388;SDS011;31127;52.078;4.370;2023-03-19T15:58:38;22.50;;;14.55;;
45388;SDS011;31127;52.078;4.370;2023-03-19T16:03:44;27.77;;;15.27;;
45388;SDS011;31127;52.078;4.370;2023-03-19T16:09:13;31.88;;;17.73;;
45388;SDS011;31127;52.078;4.370;2023-03-19T16:14:10;45.45;;;20.52;;
45388;SDS011;31127;52.078;4.370;2023-03-19T16:24:29;28.60;;;16.35;;
45388;SDS011;31127;52.078;4.370;2023-03-19T16:29:28;32.85;;;17.60;;
45388;SDS011;31127;52.078;4.370;2023-03-19T16:39:40;42.58;;;20.33;;
45388;SDS011;31127;52.078;4.370;2023-03-19T16:50:09;46.70;;;18.20;;
45388;SDS011;31127;52.078;4.370;2023-03-19T16:55:10;45.47;;;14.55;;
45388;SDS011;31127;52.078;4.370;2023-03-19T17:00:13;28.40;;;10.77;;
45388;SDS011;31127;52.078;4.370;2023-03-19T17:05:12;32.85;;;11.70;;
45388;SDS011;31127;52.078;4.370;2023-03-19T17:10:28;39.53;;;9.88;;
45388;SDS011;31127;52.078;4.370;2023-03-19T17:15:47;30.45;;;8.95;;
45388;SDS011;31127;52.078;4.370;2023-03-19T17:20:47;23.65;;;6.63;;
45388;SDS011;31127;52.078;4.370;2023-03-19T17:26:13;25.85;;;8.80;;
45388;SDS011;31127;52.078;4.370;2023-03-19T17:31:19;18.90;;;5.18;;
45388;SDS011;31127;52.078;4.370;2023-03-19T17:36:15;22.80;;;4.40;;
45388;SDS011;31127;52.078;4.370;2023-03-19T17:41:12;16.17;;;3.72;;
45388;SDS011;31127;52.078;4.370;2023-03-19T17:46:09;14.82;;;4.70;;
45388;SDS011;31127;52.078;4.370;2023-03-19T17:51:07;17.05;;;5.03;;
45388;SDS011;31127;52.078;4.370;2023-03-19T17:56:03;19.85;;;6.45;;
45388;SDS011;31127;52.078;4.370;2023-03-19T18:00:59;28.92;;;11.25;;
45388;SDS011;31127;52.078;4.370;2023-03-19T18:06:15;23.80;;;7.97;;
45388;SDS011;31127;52.078;4.370;2023-03-19T18:11:11;24.10;;;7.90;;
45388;SDS011;31127;52.078;4.370;2023-03-19T18:16:26;30.92;;;8.05;;
45388;SDS011;31127;52.078;4.370;2023-03-19T18:21:22;15.82;;;6.45;;
45388;SDS011;31127;52.078;4.370;2023-03-19T18:26:18;19.80;;;5.88;;
45388;SDS011;31127;52.078;4.370;2023-03-19T18:31:33;16.90;;;6.97;;
45388;SDS011;31127;52.078;4.370;2023-03-19T18:36:29;20.58;;;7.68;;
45388;SDS011;31127;52.078;4.370;2023-03-19T18:41:45;17.70;;;6.88;;
45388;SDS011;31127;52.078;4.370;2023-03-19T18:46:41;10.80;;;5.50;;
45388;SDS011;31127;52.078;4.370;2023-03-19T18:51:36;17.30;;;5.93;;
45388;SDS011;31127;52.078;4.370;2023-03-19T18:56:32;17.50;;;5.53;;
45388;SDS011;31127;52.078;4.370;2023-03-19T19:01:28;17.40;;;5.45;;
45388;SDS011;31127;52.078;4.370;2023-03-19T19:06:25;12.13;;;4.47;;
45388;SDS011;31127;52.078;4.370;2023-03-19T19:11:21;16.38;;;5.03;;
45388;SDS011;31127;52.078;4.370;2023-03-19T19:16:18;15.68;;;6.07;;
45388;SDS011;31127;52.078;4.370;2023-03-19T19:21:14;15.02;;;6.10;;
45388;SDS011;31127;52.078;4.370;2023-03-19T19:26:15;16.48;;;5.85;;
45388;SDS011;31127;52.078;4.370;2023-03-19T19:31:32;22.20;;;6.10;;
45388;SDS011;31127;52.078;4.370;2023-03-19T19:36:29;14.55;;;5.32;;
45388;SDS011;31127;52.078;4.370;2023-03-19T19:41:25;17.65;;;5.28;;
45388;SDS011;31127;52.078;4.370;2023-03-19T19:46:41;26.23;;;5.57;;
45388;SDS011;31127;52.078;4.370;2023-03-19T19:51:36;17.13;;;5.00;;
45388;SDS011;31127;52.078;4.370;2023-03-19T19:56:33;17.83;;;5.10;;
45388;SDS011;31127;52.078;4.370;2023-03-19T20:01:48;18.33;;;4.72;;
45388;SDS011;31127;52.078;4.370;2023-03-19T20:06:44;21.77;;;5.10;;
45388;SDS011;31127;52.078;4.370;2023-03-19T20:11:39;28.05;;;6.28;;
45388;SDS011;31127;52.078;4.370;2023-03-19T20:16:35;21.10;;;5.68;;
45388;SDS011;31127;52.078;4.370;2023-03-19T20:21:31;22.50;;;6.30;;
45388;SDS011;31127;52.078;4.370;2023-03-19T20:26:27;23.05;;;6.20;;
45388;SDS011;31127;52.078;4.370;2023-03-19T20:31:29;18.17;;;4.85;;
45388;SDS011;31127;52.078;4.370;2023-03-19T20:36:45;14.68;;;5.68;;
45388;SDS011;31127;52.078;4.370;2023-03-19T20:41:40;20.02;;;7.00;;
45388;SDS011;31127;52.078;4.370;2023-03-19T20:46:36;18.80;;;4.85;;
45388;SDS011;31127;52.078;4.370;2023-03-19T20:51:51;25.50;;;6.57;;
45388;SDS011;31127;52.078;4.370;2023-03-19T20:57:13;16.58;;;5.63;;
45388;SDS011;31127;52.078;4.370;2023-03-19T21:02:14;24.75;;;6.57;;
45388;SDS011;31127;52.078;4.370;2023-03-19T21:12:27;17.90;;;5.80;;
45388;SDS011;31127;52.078;4.370;2023-03-19T21:17:23;14.95;;;5.50;;
45388;SDS011;31127;52.078;4.370;2023-03-19T21:22:23;19.50;;;7.05;;
45388;SDS011;31127;52.078;4.370;2023-03-19T21:27:20;17.85;;;6.05;;
45388;SDS011;31127;52.078;4.370;2023-03-19T21:32:36;12.32;;;5.80;;
45388;SDS011;31127;52.078;4.370;2023-03-19T21:37:32;19.27;;;6.50;;
45388;SDS011;31127;52.078;4.370;2023-03-19T21:42:27;16.80;;;6.60;;
45388;SDS011;31127;52.078;4.370;2023-03-19T21:47:24;21.70;;;6.53;;
45388;SDS011;31127;52.078;4.370;2023-03-19T21:52:40;20.50;;;7.18;;
45388;SDS011;31127;52.078;4.370;2023-03-19T21:57:55;23.88;;;7.40;;
45388;SDS011;31127;52.078;4.370;2023-03-19T22:02:51;11.65;;;5.25;;
45388;SDS011;31127;52.078;4.370;2023-03-19T22:07:47;17.42;;;5.63;;
45388;SDS011;31127;52.078;4.370;2023-03-19T22:12:42;10.38;;;4.70;;
45388;SDS011;31127;52.078;4.370;2023-03-19T22:18:01;9.85;;;3.95;;
45388;SDS011;31127;52.078;4.370;2023-03-19T22:23:17;12.48;;;5.18;;
45388;SDS011;31127;52.078;4.370;2023-03-19T22:28:33;7.38;;;3.30;;
45388;SDS011;31127;52.078;4.370;2023-03-19T22:33:48;10.05;;;3.70;;
45388;SDS011;31127;52.078;4.370;2023-03-19T22:38:44;13.73;;;4.15;;
45388;SDS011;31127;52.078;4.370;2023-03-19T22:43:41;9.85;;;3.53;;
45388;SDS011;31127;52.078;4.370;2023-03-19T22:48:36;8.20;;;3.40;;
45388;SDS011;31127;52.078;4.370;2023-03-19T22:53:33;8.60;;;3.58;;
45388;SDS011;31127;52.078;4.370;2023-03-19T22:58:29;6.10;;;3.58;;
45388;SDS011;31127;52.078;4.370;2023-03-19T23:03:26;12.40;;;4.38;;
45388;SDS011;31127;52.078;4.370;2023-03-19T23:08:22;9.32;;;4.82;;
45388;SDS011;31127;52.078;4.370;2023-03-19T23:13:21;10.80;;;5.35;;
45388;SDS011;31127;52.078;4.370;2023-03-19T23:18:17;13.57;;;4.93;;
45388;SDS011;31127;52.078;4.370;2023-03-19T23:23:14;12.68;;;5.57;;
45388;SDS011;31127;52.078;4.370;2023-03-19T23:28:15;14.23;;;6.20;;
45388;SDS011;31127;52.078;4.370;2023-03-19T23:33:12;16.67;;;6.40;;
45388;SDS011;31127;52.078;4.370;2023-03-19T23:38:08;20.02;;;6.32;;
45388;SDS011;31127;52.078;4.370;2023-03-19T23:43:03;12.45;;;6.43;;
45388;SDS011;31127;52.078;4.370;2023-03-19T23:48:00;15.48;;;6.97;;
45388;SDS011;31127;52.078;4.370;2023-03-19T23:52:57;14.88;;;7.03;;
45388;SDS011;31127;52.078;4.370;2023-03-19T23:57:53;18.50;;;7.68;;
